Time;durP1;ratioP1;P1;durP2;ratioP2;P2;SDS_P1;SDS_P2;PMS_P1;PMS_P2;Temp;Humidity;BMP_temperature;BMP_pressure;BME280_temperature;BME280_humidity;BME280_pressure;Samples;Min_cycle;Max_cycle;Signal;HPM_P1;HPM_P2
2022/11/20 00:00:19;;;;;;;5.50;3.83;;;6.90;99.90;;;;;;4978827;28;20463;-69
2022/11/20 00:02:47;;;;;;;2.87;2.13;;;6.90;99.90;;;;;;4983156;28;20776;-69
2022/11/20 00:05:14;;;;;;;2.20;2.00;;;6.80;99.90;;;;;;4984607;28;20458;-69
2022/11/20 00:07:41;;;;;;;5.10;2.43;;;6.90;99.90;;;;;;4977390;28;20455;-69
2022/11/20 00:10:08;;;;;;;5.20;2.50;;;6.80;99.90;;;;;;4989775;28;20486;-69
2022/11/20 00:12:35;;;;;;;2.70;2.13;;;6.80;99.90;;;;;;4985451;28;20458;-69
2022/11/20 00:15:02;;;;;;;4.03;2.70;;;6.80;99.90;;;;;;4989876;28;20459;-69
2022/11/20 00:17:29;;;;;;;5.50;2.50;;;6.80;99.90;;;;;;4982405;28;20459;-69
2022/11/20 00:19:57;;;;;;;2.80;2.13;;;6.80;99.90;;;;;;4984315;28;20460;-69
2022/11/20 00:22:23;;;;;;;4.73;2.60;;;6.60;99.90;;;;;;4991006;28;20466;-69
2022/11/20 00:24:50;;;;;;;3.30;2.40;;;6.80;99.90;;;;;;4975545;28;20461;-69
2022/11/20 00:27:17;;;;;;;3.33;2.67;;;6.80;99.90;;;;;;4987209;28;20451;-69
2022/11/20 00:29:44;;;;;;;5.30;3.30;;;6.90;99.90;;;;;;4973207;28;20474;-69
2022/11/20 00:32:11;;;;;;;3.13;2.20;;;6.80;99.90;;;;;;4981978;28;21084;-68
2022/11/20 00:34:37;;;;;;;3.00;1.80;;;6.80;99.90;;;;;;4973822;28;20497;-68
2022/11/20 00:37:05;;;;;;;2.70;2.20;;;6.90;99.90;;;;;;4989060;28;20451;-68
2022/11/20 00:39:32;;;;;;;2.77;2.10;;;6.90;99.90;;;;;;4973851;28;20461;-68
2022/11/20 00:41:59;;;;;;;1.77;1.10;;;6.90;99.90;;;;;;4992768;28;20455;-68
2022/11/20 00:44:26;;;;;;;2.97;1.90;;;6.90;99.90;;;;;;4977849;28;20463;-68
2022/11/20 00:46:53;;;;;;;2.60;1.90;;;6.90;99.90;;;;;;4989544;28;20450;-68
2022/11/20 00:49:19;;;;;;;2.53;2.03;;;7.10;99.90;;;;;;4980885;28;20450;-68
2022/11/20 00:51:46;;;;;;;5.03;2.93;;;7.00;99.90;;;;;;4992197;28;20855;-68
2022/11/20 00:54:14;;;;;;;3.80;2.10;;;7.00;99.90;;;;;;4977251;28;20456;-68
2022/11/20 00:56:41;;;;;;;2.60;1.80;;;6.90;77.30;;;;;;4992206;28;20854;-69
2022/11/20 00:59:10;;;;;;;2.03;1.73;;;6.80;61.40;;;;;;4986323;28;20461;-69
2022/11/20 01:01:38;;;;;;;2.00;1.70;;;6.90;75.00;;;;;;4985686;28;20482;-68
2022/11/20 01:04:05;;;;;;;2.30;1.70;;;6.80;99.90;;;;;;4984687;28;20465;-68
2022/11/20 01:06:33;;;;;;;2.53;1.50;;;6.70;99.90;;;;;;4991161;28;20450;-68
2022/11/20 01:09:02;;;;;;;2.10;1.50;;;6.70;99.90;;;;;;4985636;28;20463;-68
2022/11/20 01:11:31;;;;;;;2.27;1.60;;;6.70;99.90;;;;;;4993653;28;20487;-68
2022/11/20 01:14:00;;;;;;;4.80;2.70;;;6.70;95.70;;;;;;4986799;28;20447;-68
2022/11/20 01:16:29;;;;;;;2.03;1.43;;;6.70;92.90;;;;;;4980217;28;20456;-68
2022/11/20 01:18:58;;;;;;;3.50;1.60;;;6.70;78.80;;;;;;4985399;28;20452;-68
2022/11/20 01:21:27;;;;;;;3.10;2.40;;;6.80;52.50;;;;;;4989214;28;20454;-70
2022/11/20 01:23:54;;;;;;;3.33;1.67;;;6.70;47.10;;;;;;4973766;28;20458;-68
2022/11/20 01:26:23;;;;;;;2.43;1.23;;;6.80;15.80;;;;;;4989078;28;20817;-67
2022/11/20 01:28:52;;;;;;;2.07;1.53;;;6.70;23.80;;;;;;4983858;28;20457;-68
2022/11/20 01:31:22;;;;;;;2.60;1.63;;;6.70;23.60;;;;;;4989138;28;20489;-68
2022/11/20 01:33:53;;;;;;;2.30;1.67;;;6.70;68.40;;;;;;4973213;28;20457;-69
2022/11/20 01:36:21;;;;;;;4.67;3.60;;;6.60;39.80;;;;;;4975559;28;20453;-70
2022/11/20 01:38:48;;;;;;;3.00;1.60;;;6.60;5.90;;;;;;4992123;28;20458;-70
2022/11/20 01:43:58;;;;;;;1.83;1.20;;;6.50;6.70;;;;;;4991214;28;20529;-68
2022/11/20 01:46:25;;;;;;;5.73;1.57;;;6.40;25.60;;;;;;4991783;28;20810;-69
2022/11/20 01:48:57;;;;;;;5.57;1.50;;;6.30;50.30;;;;;;4983647;28;20948;-69
2022/11/20 01:51:29;;;;;;;2.87;1.37;;;6.30;64.00;;;;;;4989095;28;20802;-69
2022/11/20 01:54:00;;;;;;;3.00;1.87;;;6.20;62.20;;;;;;4991220;28;20450;-69
2022/11/20 01:56:28;;;;;;;3.60;2.37;;;6.20;93.90;;;;;;4988893;28;20457;-69
2022/11/20 01:59:00;;;;;;;3.50;2.10;;;6.20;85.40;;;;;;4976863;28;20469;-69
2022/11/20 02:01:27;;;;;;;3.03;1.83;;;6.20;95.10;;;;;;4988062;28;20486;-68
2022/11/20 02:03:55;;;;;;;2.37;1.53;;;6.40;97.90;;;;;;4979339;28;20449;-69
2022/11/20 02:06:26;;;;;;;3.47;1.87;;;6.40;17.30;;;;;;4981863;28;20462;-69
2022/11/20 02:08:53;;;;;;;1.47;1.10;;;6.50;1.00;;;;;;4979810;28;20457;-69
2022/11/20 02:11:20;;;;;;;1.60;1.30;;;6.40;1.00;;;;;;4987234;28;20987;-68
2022/11/20 02:13:46;;;;;;;1.87;1.43;;;6.50;1.00;;;;;;4979408;28;20467;-69
2022/11/20 02:16:19;;;;;;;2.50;2.00;;;6.70;1.00;;;;;;4980839;28;20484;-69
2022/11/20 02:18:47;;;;;;;3.30;1.43;;;6.80;1.00;;;;;;4985206;28;20456;-69
2022/11/20 02:21:29;;;;;;;4.30;1.30;;;6.30;1.00;;;;;;4985377;28;20458;-69
2022/11/20 02:24:04;;;;;;;2.40;1.43;;;6.20;1.00;;;;;;4972817;28;20462;-69
2022/11/20 02:26:38;;;;;;;2.10;1.60;;;6.10;1.00;;;;;;4989124;28;20499;-69
2022/11/20 02:29:04;;;;;;;4.70;1.60;;;6.10;24.50;;;;;;4981868;28;20794;-69
2022/11/20 02:31:38;;;;;;;2.10;1.20;;;6.10;36.40;;;;;;4988614;28;20495;-69
2022/11/20 02:34:05;;;;;;;2.53;2.07;;;6.10;15.40;;;;;;4980447;28;20447;-68
2022/11/20 02:36:33;;;;;;;1.57;1.47;;;6.10;10.60;;;;;;4985174;28;20453;-68
2022/11/20 02:39:02;;;;;;;2.40;1.60;;;6.20;1.00;;;;;;4983503;28;20542;-69
2022/11/20 02:41:32;;;;;;;4.33;2.13;;;6.40;4.70;;;;;;4986217;28;20822;-68
2022/11/20 02:43:59;;;;;;;2.20;1.50;;;6.20;1.00;;;;;;4991215;28;20629;-68
2022/11/20 02:46:26;;;;;;;3.53;1.20;;;;;;;;;;4987428;28;20459;-68
2022/11/20 02:48:53;;;;;;;3.50;2.00;;;;;;;;;;4990448;28;20461;-68
2022/11/20 02:51:20;;;;;;;2.10;1.80;;;;;;;;;;4985769;28;20478;-68
2022/11/20 02:53:47;;;;;;;1.47;1.13;;;;;;;;;;4977806;28;20457;-70
2022/11/20 02:56:16;;;;;;;1.23;1.03;;;;;;;;;;4984740;28;20830;-70
2022/11/20 02:58:43;;;;;;;1.40;1.13;;;;;;;;;;4984421;28;20451;-70
2022/11/20 03:01:10;;;;;;;2.93;1.33;;;;;;;;;;4983921;28;20466;-69
2022/11/20 03:03:38;;;;;;;1.60;1.47;;;;;;;;;;4990160;28;20451;-69
2022/11/20 03:06:05;;;;;;;2.57;1.57;;;;;;;;;;4975404;28;20455;-68
2022/11/20 03:08:32;;;;;;;2.80;1.43;;;;;;;;;;4979296;28;20466;-68
2022/11/20 03:11:03;;;;;;;0.97;0.80;;;;;;;;;;4974414;28;20492;-68
2022/11/20 03:13:31;;;;;;;1.93;1.43;;;;;;;;;;4988069;28;20803;-68
2022/11/20 03:15:59;;;;;;;2.27;2.07;;;;;;;;;;4989016;28;20628;-69
2022/11/20 03:18:26;;;;;;;2.77;1.60;;;;;;;;;;4978102;28;20456;-69
2022/11/20 03:20:58;;;;;;;5.10;1.67;;;;;;;;;;4990630;28;20460;-70
2022/11/20 03:23:30;;;;;;;1.87;1.20;;;;;;;;;;4984511;28;20502;-68
2022/11/20 03:25:57;;;;;;;2.10;1.43;;;;;;;;;;4984672;28;20452;-70
2022/11/20 03:28:24;;;;;;;2.80;1.80;;;;;;;;;;4977962;28;20460;-68
2022/11/20 03:30:53;;;;;;;1.83;1.27;;;;;;;;;;4983668;28;20460;-68
2022/11/20 03:33:20;;;;;;;2.90;1.90;;;;;;;;;;4990613;28;20759;-68
2022/11/20 03:35:47;;;;;;;2.53;1.40;;;;;;;;;;4981077;28;20451;-70
2022/11/20 03:38:14;;;;;;;1.77;1.40;;;;;;;;;;4977755;28;20464;-68
2022/11/20 03:40:41;;;;;;;2.80;1.60;;;;;;;;;;4986823;28;20464;-69
2022/11/20 03:43:08;;;;;;;1.97;1.63;;;;;;;;;;4978960;28;20562;-68
2022/11/20 03:45:35;;;;;;;3.63;2.50;;;;;;;;;;4991016;28;20453;-68
2022/11/20 03:48:04;;;;;;;2.07;1.60;;;;;;;;;;4988197;28;20956;-68
2022/11/20 03:50:31;;;;;;;7.47;1.97;;;;;;;;;;4990391;28;20463;-69
2022/11/20 03:52:58;;;;;;;1.93;1.70;;;;;;;;;;4988886;28;21375;-68
2022/11/20 03:55:25;;;;;;;3.53;2.30;;;;;;;;;;4979509;28;20456;-68
2022/11/20 03:57:52;;;;;;;2.60;1.67;;;;;;;;;;4982546;28;20485;-70
2022/11/20 04:00:20;;;;;;;3.07;1.73;;;;;;;;;;4975112;28;20485;-68
2022/11/20 04:02:47;;;;;;;2.07;1.87;;;;;;;;;;4990146;28;20534;-68
2022/11/20 04:05:15;;;;;;;3.37;2.03;;;;;;;;;;4978182;28;20462;-69
2022/11/20 04:07:42;;;;;;;2.63;1.87;;;;;;;;;;4982517;28;20953;-69
2022/11/20 04:10:10;;;;;;;2.23;1.80;;;;;;;;;;4989551;28;20458;-68
2022/11/20 04:12:37;;;;;;;2.83;1.60;;;;;;;;;;4979235;28;20988;-68
2022/11/20 04:15:04;;;;;;;2.30;2.10;;;;;;;;;;4985901;28;20449;-68
2022/11/20 04:17:31;;;;;;;2.90;1.70;;;;;;;;;;4990087;28;21019;-68
2022/11/20 04:19:58;;;;;;;2.70;1.47;;;;;;;;;;4978838;28;20712;-68
2022/11/20 04:22:27;;;;;;;2.40;1.40;;;;;;;;;;4980547;28;20453;-68
2022/11/20 04:24:54;;;;;;;3.97;1.73;;;;;;;;;;4987788;28;20453;-68
2022/11/20 04:27:21;;;;;;;3.33;1.53;;;;;;;;;;4979772;28;20544;-68
2022/11/20 04:29:48;;;;;;;1.97;1.67;;;;;;;;;;4978987;28;20456;-68
2022/11/20 04:32:15;;;;;;;2.83;1.70;;;;;;;;;;4984418;28;20988;-68
2022/11/20 04:34:42;;;;;;;4.43;1.33;;;;;;;;;;4983041;28;20453;-68
2022/11/20 04:37:09;;;;;;;3.47;2.00;;;;;;;;;;4985380;28;20460;-67
2022/11/20 04:39:38;;;;;;;3.00;1.40;;;;;;;;;;4977791;28;20576;-68
2022/11/20 04:44:46;;;;;;;2.80;2.13;;;;;;;;;;4960928;28;20439;-68
2022/11/20 04:47:13;;;;;;;2.80;1.67;;;;;;;;;;4985756;28;20447;-68
2022/11/20 04:49:40;;;;;;;8.57;2.17;;;;;;;;;;4986526;28;20460;-68
2022/11/20 04:52:07;;;;;;;1.53;1.37;;;;;;;;;;4987338;28;20495;-68
2022/11/20 04:54:34;;;;;;;3.63;2.27;;;;;;;;;;4978314;28;20458;-68
2022/11/20 04:57:03;;;;;;;5.77;1.90;;;;;;;;;;4985989;28;20545;-68
2022/11/20 04:59:30;;;;;;;2.53;1.43;;;;;;;;;;4982084;28;20457;-68
2022/11/20 05:01:57;;;;;;;2.17;1.30;;;;;;;;;;4991007;28;20595;-68
2022/11/20 05:04:24;;;;;;;1.80;1.60;;;;;;;;;;4982173;28;20450;-68
2022/11/20 05:06:51;;;;;;;3.30;1.73;;;;;;;;;;4990007;28;20464;-69
2022/11/20 05:09:19;;;;;;;2.03;1.40;;;;;;;;;;4980370;28;20460;-70
2022/11/20 05:11:46;;;;;;;2.87;1.73;;;;;;;;;;4987387;28;20480;-68
2022/11/20 05:14:14;;;;;;;2.17;1.97;;;;;;;;;;4985887;28;20822;-69
2022/11/20 05:16:41;;;;;;;4.53;1.60;;;;;;;;;;4986161;28;20494;-70
2022/11/20 05:19:08;;;;;;;2.73;1.90;;;;;;;;;;4975476;28;20460;-69
2022/11/20 05:21:35;;;;;;;3.90;2.00;;;;;;;;;;4987202;28;20514;-69
2022/11/20 05:24:03;;;;;;;1.37;1.23;;;;;;;;;;4981073;28;20461;-69
2022/11/20 05:26:30;;;;;;;1.73;1.23;;;;;;;;;;4991534;28;20478;-68
2022/11/20 05:28:57;;;;;;;2.73;1.37;;;;;;;;;;4988798;28;20457;-68
2022/11/20 05:31:26;;;;;;;2.50;2.20;;;;;;;;;;4979721;28;20463;-68
2022/11/20 05:33:53;;;;;;;1.97;1.57;;;;;;;;;;4989630;28;20457;-68
2022/11/20 05:36:20;;;;;;;3.00;2.10;;;;;;;;;;4996636;28;20450;-68
2022/11/20 05:38:47;;;;;;;2.80;1.70;;;;;;;;;;4996899;28;20554;-69
2022/11/20 05:41:15;;;;;;;2.40;1.70;;;;;;;;;;4993303;28;20451;-68
2022/11/20 05:43:42;;;;;;;2.70;1.80;;;;;;;;;;4996094;28;20463;-69
2022/11/20 05:46:10;;;;;;;1.40;1.27;;;;;;;;;;4982414;28;20451;-69
2022/11/20 05:48:39;;;;;;;2.43;1.50;;;;;;;;;;4994809;28;20447;-68
2022/11/20 05:51:08;;;;;;;2.57;2.10;;;;;;;;;;4981956;28;20457;-68
2022/11/20 05:53:35;;;;;;;2.33;2.10;;;;;;;;;;4985946;28;20491;-68
2022/11/20 05:56:03;;;;;;;3.60;1.57;;;;;;;;;;4980855;28;20456;-68
2022/11/20 05:58:31;;;;;;;2.80;1.20;;;;;;;;;;4992493;28;20451;-68
2022/11/20 06:01:04;;;;;;;3.40;1.87;;;;;;;;;;4980667;28;21333;-69
2022/11/20 06:03:31;;;;;;;2.17;1.60;;;;;;;;;;4992746;28;20454;-68
2022/11/20 06:06:01;;;;;;;2.23;1.70;;;;;;;;;;4974352;28;20461;-69
2022/11/20 06:08:29;;;;;;;2.30;1.53;;;;;;;;;;4985659;28;20806;-69
2022/11/20 06:10:56;;;;;;;1.60;1.43;;;;;;;;;;4983822;28;20464;-68
2022/11/20 06:13:23;;;;;;;1.73;1.50;;;;;;;;;;4986237;28;20490;-69
2022/11/20 06:15:50;;;;;;;2.23;1.93;;;;;;;;;;4991792;28;20458;-69
2022/11/20 06:18:17;;;;;;;1.80;1.40;;;;;;;;;;4990672;28;20452;-69
2022/11/20 06:20:44;;;;;;;2.30;1.73;;;;;;;;;;4983009;28;20950;-69
2022/11/20 06:23:13;;;;;;;1.30;1.17;;;;;;;;;;4985629;28;20469;-69
2022/11/20 06:25:40;;;;;;;3.27;1.30;;;;;;;;;;4980907;28;20462;-68
2022/11/20 06:28:07;;;;;;;1.80;1.40;;;;;;;;;;4987793;28;20460;-69
2022/11/20 06:30:35;;;;;;;1.83;1.00;;;;;;;;;;4982973;28;20469;-69
2022/11/20 06:33:02;;;;;;;1.93;1.13;;;;;;;;;;4974706;28;20487;-69
2022/11/20 06:35:29;;;;;;;3.03;1.63;;;;;;;;;;4992080;28;20830;-70
2022/11/20 06:37:57;;;;;;;1.63;1.30;;;;;;;;;;4980750;28;20477;-69
2022/11/20 06:40:25;;;;;;;1.93;1.30;;;;;;;;;;4987647;28;20463;-69
2022/11/20 06:42:54;;;;;;;2.00;1.60;;;;;;;;;;4983768;28;20801;-69
2022/11/20 06:45:21;;;;;;;3.90;1.50;;;;;;;;;;4982092;28;20465;-69
2022/11/20 06:47:49;;;;;;;2.30;1.20;;;;;;;;;;4976051;28;20462;-68
2022/11/20 06:50:16;;;;;;;2.17;1.70;;;;;;;;;;4986682;28;20567;-69
2022/11/20 06:52:43;;;;;;;6.23;1.50;;;;;;;;;;4981368;28;20486;-69
2022/11/20 06:55:10;;;;;;;1.23;1.00;;;;;;;;;;4981429;28;20813;-69
2022/11/20 06:57:38;;;;;;;3.63;1.80;;;;;;;;;;4990059;28;20460;-68
2022/11/20 07:00:06;;;;;;;2.03;1.20;;;;;;;;;;4980787;28;20827;-68
2022/11/20 07:02:33;;;;;;;1.40;1.03;;;;;;;;;;4985762;28;20484;-68
2022/11/20 07:05:00;;;;;;;1.43;1.13;;;;;;;;;;4972123;28;20975;-68
2022/11/20 07:07:27;;;;;;;2.10;1.20;;;;;;;;;;4977745;28;20457;-68
2022/11/20 07:09:54;;;;;;;1.20;0.90;;;;;;;;;;4991145;28;20479;-68
2022/11/20 07:12:21;;;;;;;1.90;1.03;;;;;;;;;;4979722;28;20976;-68
2022/11/20 07:14:50;;;;;;;2.63;1.37;;;;;;;;;;4983677;28;20458;-68
2022/11/20 07:17:17;;;;;;;1.70;1.23;;;;;;;;;;4976850;28;20461;-69
2022/11/20 07:19:44;;;;;;;2.00;1.53;;;;;;;;;;4986823;28;20480;-71
2022/11/20 07:22:11;;;;;;;2.60;1.40;;;;;;;;;;4980473;28;20465;-68
2022/11/20 07:24:38;;;;;;;1.43;1.00;;;;;;;;;;4989894;28;20982;-68
2022/11/20 07:27:06;;;;;;;1.53;1.10;;;;;;;;;;4985781;28;20537;-69
2022/11/20 07:29:33;;;;;;;1.57;1.13;;;;;;;;;;4991214;28;20461;-69
2022/11/20 07:32:01;;;;;;;1.70;0.87;;;;;;;;;;4990096;28;21101;-71
2022/11/20 07:34:28;;;;;;;2.03;1.20;;;;;;;;;;4977615;28;20467;-70
2022/11/20 07:36:55;;;;;;;1.97;1.40;;;;;;;;;;4982217;28;20451;-70
2022/11/20 07:39:23;;;;;;;2.20;1.20;;;;;;;;;;4976405;28;20445;-71
2022/11/20 07:41:50;;;;;;;1.57;1.13;;;;;;;;;;4990265;28;20451;-69
2022/11/20 07:44:17;;;;;;;1.20;0.93;;;;;;;;;;4977547;28;20454;-68
2022/11/20 07:46:44;;;;;;;4.90;1.33;;;;;;;;;;4978508;28;20450;-68
2022/11/20 07:49:12;;;;;;;1.27;1.10;;;;;;;;;;4979326;28;20445;-68
2022/11/20 07:51:39;;;;;;;2.20;1.33;;;;;;;;;;4987261;28;20463;-69
2022/11/20 07:54:06;;;;;;;2.97;2.00;;;;;;;;;;4987811;28;20483;-68
2022/11/20 07:56:34;;;;;;;1.53;1.20;;;;;;;;;;4976005;28;20458;-68
2022/11/20 07:59:01;;;;;;;2.13;1.20;;;;;;;;;;4988697;28;20458;-69
2022/11/20 08:01:28;;;;;;;2.17;1.30;;;;;;;;;;4994802;28;20945;-68
2022/11/20 08:03:55;;;;;;;1.53;0.70;;;;;;;;;;4991127;28;20467;-69
2022/11/20 08:06:24;;;;;;;2.27;1.17;;;;;;;;;;4983733;28;20949;-68
2022/11/20 08:08:51;;;;;;;1.10;0.80;;;;;;;;;;4990811;28;20457;-68
2022/11/20 08:14:12;;;;;;;0.97;0.80;;;;;;;;;;4987682;28;20817;-67
2022/11/20 08:16:39;;;;;;;1.53;1.00;;;;;;;;;;4990665;28;20454;-68
2022/11/20 08:19:06;;;;;;;1.73;1.20;;;;;;;;;;4982557;28;20465;-68
2022/11/20 08:21:35;;;;;;;3.70;1.07;;;;;;;;;;4994585;28;20458;-67
2022/11/20 08:24:02;;;;;;;1.67;0.83;;;;;;;;;;4985285;28;21087;-68
2022/11/20 08:26:29;;;;;;;1.57;0.70;;;;;;;;;;4975476;28;20477;-67
2022/11/20 08:28:57;;;;;;;4.20;1.33;;;;;;;;;;4980456;28;20456;-69
2022/11/20 08:31:24;;;;;;;1.40;1.00;;;;;;;;;;4988369;28;20471;-70
2022/11/20 08:33:52;;;;;;;10.67;1.53;;;;;;;;;;4988720;28;20488;-70
2022/11/20 08:36:19;;;;;;;1.63;0.97;;;;;;;;;;4982343;28;20456;-69
2022/11/20 08:38:49;;;;;;;2.50;1.67;;;;;;;;;;4982665;28;20452;-69
2022/11/20 08:41:26;;;;;;;1.33;1.00;;;;;;;;;;4989591;28;20439;-69
2022/11/20 08:43:54;;;;;;;1.17;1.07;;;;;;;;;;4982126;28;20457;-69
2022/11/20 08:46:21;;;;;;;1.27;0.80;;;;;;;;;;4986560;28;20457;-67
2022/11/20 08:48:48;;;;;;;3.97;1.77;;;;;;;;;;4983260;28;20466;-68
2022/11/20 08:51:16;;;;;;;1.73;1.40;;;;;;;;;;4991465;28;20757;-70
2022/11/20 08:53:43;;;;;;;1.60;0.90;;;;;;;;;;4982839;28;20484;-71
2022/11/20 08:56:12;;;;;;;1.40;1.03;;;;;;;;;;4984220;28;20456;-70
2022/11/20 08:58:39;;;;;;;1.37;0.80;;;;;;;;;;4988662;28;20459;-69
2022/11/20 09:01:06;;;;;;;1.00;0.83;;;;;;;;;;4988476;28;20469;-71
2022/11/20 09:03:33;;;;;;;2.33;1.33;;;;;;;;;;4990760;28;20444;-70
2022/11/20 09:06:01;;;;;;;1.03;0.70;;;;;;;;;;4985538;28;20461;-67
2022/11/20 09:08:28;;;;;;;1.40;0.80;;;;;;;;;;4984873;28;21324;-68
2022/11/20 09:10:56;;;;;;;0.80;0.67;;;;;;;;;;4983414;28;20453;-67
2022/11/20 09:13:25;;;;;;;1.33;0.83;;;;;;;;;;4979556;28;20488;-68
2022/11/20 09:15:54;;;;;;;1.40;0.90;;;;;;;;;;4982448;28;20456;-68
2022/11/20 09:18:21;;;;;;;1.50;0.77;;;;;;;;;;4977560;28;20509;-68
2022/11/20 09:20:48;;;;;;;1.40;0.80;;;;;;;;;;4974839;28;20449;-70
2022/11/20 09:23:15;;;;;;;1.73;0.90;;;;;;;;;;4978578;28;20543;-68
2022/11/20 09:25:43;;;;;;;1.00;0.70;;;;;;;;;;4978985;28;20458;-71
2022/11/20 09:28:10;;;;;;;1.00;0.70;;;;;;;;;;4986816;28;20459;-74
2022/11/20 09:30:38;;;;;;;1.07;0.80;;;;;;;;;;4973671;28;20468;-71
2022/11/20 09:33:06;;;;;;;0.80;0.50;;;;;;;;;;4975467;28;20492;-70
2022/11/20 09:35:33;;;;;;;1.03;0.87;;;;;;;;;;4981154;28;20459;-72
2022/11/20 09:38:05;;;;;;;1.10;0.80;;;;;;;;;;4987026;28;20471;-71
2022/11/20 09:40:32;;;;;;;1.03;0.70;;;;;;;;;;4990134;28;20453;-71
2022/11/20 09:43:03;;;;;;;0.77;0.53;;;;;;;;;;4978590;28;20607;-70
2022/11/20 09:45:37;;;;;;;1.20;0.80;;;;;;;;;;4984896;28;20456;-71
2022/11/20 09:48:20;;;;;;;1.33;0.70;;;;;;;;;;4981261;28;20452;-70
2022/11/20 09:50:49;;;;;;;1.27;0.60;;;;;;;;;;4983501;28;20955;-69
2022/11/20 09:53:22;;;;;;;1.17;0.70;;;;;;;;;;4982773;28;21018;-70
2022/11/20 09:55:49;;;;;;;1.43;1.33;;;;;;;;;;4987573;28;20453;-71
2022/11/20 09:58:20;;;;;;;0.70;0.50;;;;;;;;;;4989435;28;20449;-70
2022/11/20 10:00:47;;;;;;;1.33;0.87;;;;;;;;;;4984211;28;20455;-70
2022/11/20 10:03:16;;;;;;;1.40;0.77;;;;;;;;;;4973510;28;20478;-70
2022/11/20 10:05:46;;;;;;;0.90;0.57;;;;;;;;;;4975493;28;20460;-70
2022/11/20 10:08:17;;;;;;;1.20;0.73;;;;;;;;;;4983681;28;20463;-70
2022/11/20 10:10:45;;;;;;;0.93;0.60;;;;;;;;;;4984190;28;20464;-70
2022/11/20 10:13:22;;;;;;;0.90;0.63;;;;;;;;;;4983389;28;20490;-70
2022/11/20 10:15:55;;;;;;;0.80;0.60;;;;;;;;;;4985349;28;20441;-70
2022/11/20 10:18:32;;;;;;;1.37;1.13;;;;;;;;;;4974732;28;20457;-70
2022/11/20 10:21:05;;;;;;;0.80;0.60;;;;;;;;;;4980239;28;20463;-70
2022/11/20 10:23:41;;;;;;;1.33;0.87;;;;;;;;;;4977271;28;21165;-70
2022/11/20 10:26:18;;;;;;;1.00;0.70;;;;;;;;;;4978368;28;20452;-70
2022/11/20 10:28:49;;;;;;;0.77;0.53;;;;;;;;;;4969999;28;20467;-70
2022/11/20 10:31:24;;;;;;;0.90;0.67;;;;;;;;;;4971337;28;20475;-69
2022/11/20 10:33:53;;;;;;;2.30;1.03;;;;;;;;;;4988576;28;20487;-70
2022/11/20 10:36:23;;;;;;;0.70;0.50;;;;;;;;;;4983844;28;20548;-68
2022/11/20 10:38:53;;;;;;;0.80;0.60;;;;;;;;;;4983848;28;20453;-68
2022/11/20 10:41:26;;;;;;;1.77;0.73;;;;;;;;;;4989431;28;20461;-69
2022/11/20 10:43:55;;;;;;;1.00;0.60;;;;;;;;;;4987828;28;20487;-70
2022/11/20 10:46:23;;;;;;;1.37;0.67;;;;;;;;;;4980245;28;20459;-69
2022/11/20 10:48:51;;;;;;;0.77;0.50;;;;;;;;;;4979804;28;20455;-70
2022/11/20 10:51:23;;;;;;;1.10;0.70;;;;;;;;;;4989478;28;20802;-71
2022/11/20 10:53:58;;;;;;;0.90;0.67;;;;;;;;;;4985013;28;20503;-69
2022/11/20 10:56:29;;;;;;;1.07;0.73;;;;;;;;;;4989285;28;20962;-70
2022/11/20 10:59:04;;;;;;;2.60;0.80;;;;;;;;;;4982785;28;20464;-69
2022/11/20 11:01:31;;;;;;;4.00;0.90;;;;;;;;;;4984775;28;20511;-69
2022/11/20 11:03:58;;;;;;;0.80;0.60;;;;;;;;;;4987967;28;20468;-69
2022/11/20 11:06:30;;;;;;;0.97;0.70;;;;;;;;;;4988965;28;20560;-69
2022/11/20 11:09:04;;;;;;;0.90;0.60;;;6.20;1.00;;;;;;4986306;28;21116;-70
2022/11/20 11:11:33;;;;;;;1.20;0.60;;;8.10;99.90;;;;;;4989028;28;20454;-69
2022/11/20 11:14:06;;;;;;;1.97;1.17;;;8.00;99.90;;;;;;4982254;28;20498;-69
2022/11/20 11:16:33;;;;;;;1.10;0.63;;;7.90;99.90;;;;;;4981650;28;20455;-70
2022/11/20 11:19:07;;;;;;;1.00;0.63;;;8.00;99.90;;;;;;4969251;28;20453;-68
2022/11/20 11:21:36;;;;;;;1.17;0.70;;;8.20;99.90;;;;;;4972393;28;20464;-68
2022/11/20 11:24:05;;;;;;;1.30;0.90;;;8.20;99.90;;;;;;4976722;28;21080;-68
2022/11/20 11:26:32;;;;;;;1.20;0.80;;;8.20;99.90;;;;;;4974432;28;20458;-68
2022/11/20 11:29:00;;;;;;;1.10;0.73;;;8.20;99.90;;;;;;4976595;28;20545;-70
2022/11/20 11:31:29;;;;;;;0.87;0.67;;;8.20;99.90;;;;;;4976067;28;20465;-70
2022/11/20 11:34:06;;;;;;;5.13;1.50;;;8.20;99.90;;;;;;4983682;28;20485;-73
2022/11/20 11:36:34;;;;;;;2.20;0.60;;;8.30;99.90;;;;;;4974310;28;20450;-69
2022/11/20 11:39:02;;;;;;;0.80;0.70;;;8.40;78.50;;;;;;4986112;28;20532;-69
2022/11/20 11:41:35;;;;;;;1.00;0.80;;;8.50;31.20;;;;;;4985305;28;20466;-68
2022/11/20 11:47:01;;;;;;;2.03;0.93;;;8.70;1.00;;;;;;4967802;28;21264;-69
2022/11/20 11:49:27;;;;;;;1.50;1.10;;;8.80;1.00;;;;;;4985143;28;21114;-68
2022/11/20 11:52:05;;;;;;;1.67;0.80;;;8.80;1.00;;;;;;4978253;28;20460;-68
2022/11/20 11:54:37;;;;;;;1.70;0.93;;;8.90;99.90;;;;;;4983951;28;20567;-68
2022/11/20 11:57:12;;;;;;;0.90;0.80;;;8.90;99.90;;;;;;4976587;28;20454;-68
2022/11/20 11:59:58;;;;;;;1.27;0.87;;;8.90;99.90;;;;;;4969147;28;20471;-68
2022/11/20 12:02:34;;;;;;;1.13;0.67;;;8.70;55.70;;;;;;4982791;28;20484;-68
2022/11/20 12:05:05;;;;;;;0.90;0.70;;;8.70;1.00;;;;;;4981566;28;20468;-68
2022/11/20 12:07:40;;;;;;;1.20;0.60;;;8.90;99.90;;;;;;4972880;28;20445;-68
2022/11/20 12:10:17;;;;;;;2.10;1.00;;;9.00;1.00;;;;;;4974705;28;20450;-68
2022/11/20 12:12:49;;;;;;;1.23;0.77;;;9.30;66.20;;;;;;4968875;28;20927;-68
2022/11/20 12:15:26;;;;;;;0.90;0.77;;;9.40;1.00;;;;;;4982207;28;21022;-68
2022/11/20 12:17:53;;;;;;;1.00;0.83;;;9.60;44.90;;;;;;4968054;28;20972;-68
2022/11/20 12:20:23;;;;;;;1.43;1.30;;;9.70;1.00;;;;;;4982451;28;20460;-68
2022/11/20 12:22:57;;;;;;;0.90;0.77;;;9.80;99.90;;;;;;4968409;28;20454;-68
2022/11/20 12:25:27;;;;;;;1.90;0.97;;;9.90;99.90;;;;;;4976165;28;20456;-68
2022/11/20 12:28:25;;;;;;;1.10;0.80;;;9.70;1.00;;;;;;4987234;28;20453;-68
2022/11/20 12:31:09;;;;;;;1.47;0.73;;;9.80;99.90;;;;;;4968419;28;20813;-68
2022/11/20 12:34:02;;;;;;;1.00;0.77;;;9.70;1.00;;;;;;4976849;28;20485;-69
2022/11/20 12:36:39;;;;;;;1.00;0.60;;;9.80;99.90;;;;;;4987512;28;20456;-69
2022/11/20 12:39:31;;;;;;;2.17;0.90;;;9.90;99.90;;;;;;4978821;28;20449;-69
2022/11/20 12:45:49;;;;;;;0.83;0.70;;;9.80;1.00;;;;;;4983280;28;20468;-69
2022/11/20 12:49:13;;;;;;;1.83;1.00;;;9.80;99.90;;;;;;4970674;28;20468;-69
2022/11/20 12:52:01;;;;;;;0.93;0.60;;;9.80;29.30;;;;;;4928510;29;20845;-69
2022/11/20 12:54:47;;;;;;;4.30;1.27;;;9.80;1.00;;;;;;4931525;29;21426;-69
2022/11/20 12:57:22;;;;;;;1.73;1.00;;;9.80;99.90;;;;;;4980147;28;20449;-69
2022/11/20 13:00:13;;;;;;;1.20;0.50;;;9.90;99.90;;;;;;4971311;28;20466;-69
2022/11/20 13:03:04;;;;;;;2.40;0.90;;;10.00;99.90;;;;;;4983202;28;20484;-71
2022/11/20 13:05:42;;;;;;;1.23;0.70;;;10.10;99.90;;;;;;4975229;28;20474;-69
2022/11/20 13:08:12;;;;;;;0.63;0.50;;;;;;;;;;4983873;28;20465;-69
2022/11/20 13:10:41;;;;;;;2.03;0.80;;;;;;;;;;4976278;28;21081;-69
2022/11/20 13:13:13;;;;;;;1.90;0.83;;;;;;;;;;4984335;28;20467;-69
2022/11/20 13:15:52;;;;;;;1.17;0.80;;;;;;;;;;4978380;28;20477;-69
2022/11/20 13:18:21;;;;;;;2.50;0.90;;;;;;;;;;4976003;28;20461;-69
2022/11/20 13:20:49;;;;;;;1.43;0.90;;;;;;;;;;4973709;28;20832;-69
2022/11/20 13:23:25;;;;;;;1.67;0.83;;;;;;;;;;4984659;28;20462;-69
2022/11/20 13:25:52;;;;;;;0.87;0.60;;;;;;;;;;4981249;28;20870;-69
2022/11/20 13:28:29;;;;;;;0.70;0.40;;;10.00;99.90;;;;;;4984825;28;20451;-69
2022/11/20 13:30:58;;;;;;;1.00;0.60;;;9.60;99.90;;;;;;4970938;28;20473;-69
2022/11/20 13:33:31;;;;;;;1.67;0.70;;;9.70;99.90;;;;;;4984931;28;20454;-69
2022/11/20 13:36:00;;;;;;;1.00;0.60;;;;;;;;;;4977328;28;20937;-69
2022/11/20 13:38:27;;;;;;;2.70;0.50;;;;;;;;;;4982645;28;20488;-71
2022/11/20 13:40:55;;;;;;;1.37;0.90;;;;;;;;;;4982044;28;20454;-69
2022/11/20 13:43:36;;;;;;;1.30;0.57;;;;;;;;;;4977724;28;20450;-71
2022/11/20 13:46:05;;;;;;;0.70;0.50;;;;;;;;;;4988946;28;20472;-70
2022/11/20 13:48:35;;;;;;;0.90;0.63;;;;;;;;;;4980538;28;20450;-71
2022/11/20 13:51:06;;;;;;;1.63;0.60;;;;;;;;;;4986773;28;20829;-70
2022/11/20 13:53:39;;;;;;;0.80;0.57;;;;;;;;;;4987200;28;20454;-69
2022/11/20 13:56:10;;;;;;;1.17;0.60;;;;;;;;;;4980466;28;20458;-69
2022/11/20 13:58:54;;;;;;;0.67;0.47;;;;;;;;;;4978741;28;20810;-69
2022/11/20 14:01:22;;;;;;;1.83;0.80;;;;;;;;;;4980441;28;20464;-70
2022/11/20 14:03:52;;;;;;;2.80;1.47;;;;;;;;;;4987133;28;20465;-70
2022/11/20 14:06:24;;;;;;;0.97;0.60;;;;;;;;;;4987767;28;20457;-71
2022/11/20 14:08:51;;;;;;;1.00;0.60;;;;;;;;;;4980319;28;20467;-71
2022/11/20 14:11:20;;;;;;;0.80;0.60;;;;;;;;;;4983775;28;20957;-72
2022/11/20 14:13:57;;;;;;;1.87;1.20;;;;;;;;;;4983524;28;20818;-71
2022/11/20 14:16:24;;;;;;;0.90;0.80;;;;;;;;;;4986257;28;20456;-72
2022/11/20 14:18:53;;;;;;;0.83;0.67;;;;;;;;;;4979998;28;20454;-71
2022/11/20 14:21:24;;;;;;;1.73;1.37;;;;;;;;;;4989710;28;20821;-71
2022/11/20 14:23:54;;;;;;;1.30;1.10;;;;;;;;;;4986362;28;20514;-71
2022/11/20 14:26:21;;;;;;;1.47;0.80;;;;;;;;;;4980893;28;20460;-70
2022/11/20 14:28:49;;;;;;;1.60;0.60;;;;;;;;;;4981527;28;20458;-71
2022/11/20 14:31:20;;;;;;;2.60;1.63;;;;;;;;;;4988325;28;20468;-71
2022/11/20 14:33:48;;;;;;;1.03;0.70;;;;;;;;;;4979299;28;20454;-70